Elisalex Schulte — 9V9154 — position and weather

sailwx.info

Track history (hours):
 
Tides and Currents Weather Stations Pressure Air Temp Water Temp Dewpoint Dewpoint Depression Visibility Wind Speed Wind Dir Waves Ship Positions

Elisalex Schulte

Last reported at 2017-Apr-29 01:52 UTC. Time now 2017-Apr-30 01:17 UTC.
Position N 56°01' W 003°30'.

Length 144 m; draft 5.9 m.

Type: Tanker. MMSI: 563052000.

Date/timePositionNaut miles runAvg speedWind from/ knotsBaromVisibWave heightAir tempDewpointWater temp
2017-Apr-29 01:52N 56°01' W 003°30'3 6.8
2017-Apr-29 01:29N 56°00' W 003°26'4 6.9
2017-Apr-29 00:59N 56°01' W 003°20'510.5
2017-Apr-29 00:30N 56°03' W 003°11'4 7.7
2017-Apr-29 00:01N 56°04' W 003°05'3 5.7
2017-Apr-28 23:31N 56°05' W 002°60'3 5.7
2017-Apr-28 23:01N 56°05' W 002°55'3 5.4
2017-Apr-28 22:30N 56°06' W 002°51'3 5.4
2017-Apr-28 22:00N 56°07' W 002°46'3 5.4
2017-Apr-28 21:30N 56°07' W 002°41'2 5.0
2017-Apr-28 21:01N 56°07' W 002°37'3 5.4
2017-Apr-28 20:30N 56°07' W 002°32'3 6.3
2017-Apr-28 20:00N 56°06' W 002°27'713.5
2017-Apr-28 19:30N 56°02' W 002°16'713.5
2017-Apr-28 19:00N 55°59' W 002°06'713.1
2017-Apr-28 18:31N 55°56' W 001°56'713.0
2017-Apr-28 18:00N 55°53' W 001°46'612.7
2017-Apr-28 17:30N 55°49' W 001°36'812.3
2017-Apr-28 16:49N 55°45' W 001°23'412.2
2017-Apr-28 16:30N 55°43' W 001°17'1112.3
2017-Apr-28 15:36N 55°35' W 001°03'26711.0
2017-Apr-27 15:23N 52°04' E 003°35'411.5
2017-Apr-27 15:00N 52°04' E 003°42'9 9.4
2017-Apr-27 14:01N 52°03' E 003°57'4 7.1
2017-Apr-27 13:30N 52°00' E 004°01'4 8.0
2017-Apr-27 13:00N 51°59' E 004°07'5 9.8
2017-Apr-27 12:30N 51°56' E 004°13'4 7.7
2017-Apr-27 12:00N 51°53' E 004°18'1 0.9
2017-Apr-27 11:24N 51°53' E 004°17'0 0.0
2017-Apr-27 10:57N 51°53' E 004°17'0 0.0
2017-Apr-27 10:27N 51°53' E 004°17'0 0.0
2017-Apr-27 09:57N 51°53' E 004°17'0 0.0
2017-Apr-27 09:30N 51°53' E 004°17'0 0.0
2017-Apr-27 08:54N 51°53' E 004°17'0 0.0
2017-Apr-27 08:30N 51°53' E 004°17'0 0.0
2017-Apr-27 08:00N 51°53' E 004°17'0 0.0
2017-Apr-27 07:30N 51°53' E 004°17'0 0.0
2017-Apr-27 07:00N 51°53' E 004°17'0 0.0
2017-Apr-27 06:30N 51°53' E 004°17'0 0.0
2017-Apr-27 06:00N 51°53' E 004°17'0 0.0
2017-Apr-27 05:18N 51°53' E 004°17'0 0.0
2017-Apr-27 05:00N 51°53' E 004°17'0 0.0
2017-Apr-27 04:30N 51°53' E 004°17'0 0.0
2017-Apr-27 03:57N 51°53' E 004°17'0 0.0
2017-Apr-27 03:30N 51°53' E 004°17'0 0.0
2017-Apr-27 02:57N 51°53' E 004°17'0 0.0
2017-Apr-27 02:30N 51°53' E 004°17'0 0.0
2017-Apr-27 01:54N 51°53' E 004°17'0 0.0
2017-Apr-27 01:27N 51°53' E 004°17'0 0.0
2017-Apr-27 01:00N 51°53' E 004°17'0 0.0
2017-Apr-27 00:27N 51°53' E 004°17'0 0.0
2017-Apr-27 00:00N 51°53' E 004°17'0 0.0
2017-Apr-26 23:30N 51°53' E 004°17'0 0.0
2017-Apr-26 22:57N 51°53' E 004°17'0 0.0
2017-Apr-26 22:30N 51°53' E 004°17'0 0.0
2017-Apr-26 22:00N 51°53' E 004°17'0 0.0
2017-Apr-26 21:30N 51°53' E 004°17'0 0.0
2017-Apr-26 21:00N 51°53' E 004°17'0 0.0
2017-Apr-26 20:24N 51°53' E 004°17'0 0.0
2017-Apr-26 20:00N 51°53' E 004°17'0 0.0
2017-Apr-26 19:30N 51°53' E 004°17'0 0.0
2017-Apr-26 19:00N 51°53' E 004°17'0 0.0
2017-Apr-26 18:30N 51°53' E 004°17'0 0.0
2017-Apr-26 18:00N 51°53' E 004°17'0 0.0
2017-Apr-26 17:30N 51°53' E 004°17'0 0.0
2017-Apr-26 17:00N 51°53' E 004°17'0 0.0
2017-Apr-26 16:21N 51°53' E 004°17'0 0.0
2017-Apr-26 16:00N 51°53' E 004°17'0 0.0
2017-Apr-26 15:27N 51°53' E 004°17'0 0.0
2017-Apr-26 15:00N 51°53' E 004°17'0 0.0
2017-Apr-26 14:24N 51°53' E 004°17'0 0.0
2017-Apr-26 13:27N 51°53' E 004°17'0 0.0
2017-Apr-26 12:57N 51°53' E 004°17'0 0.0
2017-Apr-26 12:22N 51°53' E 004°17'0 0.4
2017-Apr-26 12:00N 51°53' E 004°17'1 1.5
2017-Apr-26 11:30N 51°54' E 004°17'4 7.7
2017-Apr-26 11:00N 51°56' E 004°12'4 7.5
2017-Apr-26 10:30N 51°58' E 004°07'4 7.6
2017-Apr-26 10:00N 51°60' E 004°01'4 8.0
2017-Apr-26 09:30N 52°01' E 003°55'4 7.8
2017-Apr-26 09:00N 52°02' E 003°49'4 8.6
2017-Apr-26 08:30N 52°03' E 003°42'426 9.9
2017-Apr-24 13:22N 58°00' E 010°27'410.2
2017-Apr-24 13:00N 58°02' E 010°34'510.7
2017-Apr-24 12:30N 58°05' E 010°42'610.6
2017-Apr-24 11:58N 58°08' E 010°51'510.2
2017-Apr-24 11:30N 58°11' E 010°58'5 9.6
2017-Apr-24 10:59N 58°14' E 011°06'4 7.5
2017-Apr-24 10:31N 58°16' E 011°12'3 5.5
2017-Apr-24 10:00N 58°17' E 011°17'3 6.8
2017-Apr-24 09:30N 58°19' E 011°22'3 6.5
2017-Apr-24 09:00N 58°22' E 011°26'0 0.0
2017-Apr-23 11:49N 58°21' E 011°26'0 0.0
2017-Apr-23 11:23N 58°21' E 011°26'1 2.4
2017-Apr-23 11:01N 58°21' E 011°25'4 8.9
2017-Apr-23 10:31N 58°18' E 011°19'510.4
2017-Apr-23 10:00N 58°14' E 011°12'3 5.9
2017-Apr-23 09:26N 58°11' E 011°10'0 0.0
2017-Apr-23 06:32N 58°11' E 011°10'0 0.2
2017-Apr-23 06:29N 58°11' E 011°10'0 0.0
2017-Apr-23 05:56N 58°11' E 011°10'0 0.0
2017-Apr-23 05:23N 58°11' E 011°10'0 0.0
2017-Apr-23 04:50N 58°11' E 011°10'0 0.0
2017-Apr-23 04:20N 58°11' E 011°10'0 0.1
2017-Apr-23 03:20N 58°11' E 011°10'0 0.1
2017-Apr-23 02:14N 58°11' E 011°10'0 0.0
2017-Apr-23 01:56N 58°11' E 011°10'0 0.0
2017-Apr-22 20:59N 58°11' E 011°10'0 0.0
2017-Apr-22 19:26N 58°11' E 011°10'0 0.0
2017-Apr-22 17:47N 58°11' E 011°10'0 0.0
2017-Apr-22 16:38N 58°11' E 011°10'0 0.0
2017-Apr-22 16:23N 58°11' E 011°10'0 0.0
2017-Apr-22 14:29N 58°11' E 011°10'0 0.1
2017-Apr-22 12:38N 58°11' E 011°10'0 0.1
2017-Apr-22 11:40N 58°11' E 011°10'0 1.5
2017-Apr-22 11:30N 58°11' E 011°10'3 6.2
2017-Apr-22 11:00N 58°11' E 011°04'4 7.9
2017-Apr-22 10:30N 58°11' E 010°57'2 3.0
2017-Apr-22 09:58N 58°11' E 010°54'2 3.7
2017-Apr-22 09:30N 58°11' E 010°50'1 2.6
2017-Apr-22 09:00N 58°10' E 010°48'2 3.2
2017-Apr-22 08:29N 58°11' E 010°51'2 3.1
2017-Apr-22 08:00N 58°11' E 010°54'1 2.8
2017-Apr-22 07:29N 58°12' E 010°56'2 3.1
2017-Apr-22 07:00N 58°12' E 010°59'1 2.9
2017-Apr-22 06:30N 58°12' E 011°02'1 2.7
2017-Apr-22 05:59N 58°12' E 011°04'1 2.4
2017-Apr-22 05:26N 58°12' E 011°07'2 3.5
2017-Apr-22 04:59N 58°11' E 011°04'2 4.6
2017-Apr-22 04:29N 58°11' E 010°60'2 5.1
2017-Apr-22 04:00N 58°10' E 010°55'3 6.2
2017-Apr-22 03:30N 58°09' E 010°50'2 3.2
2017-Apr-22 02:53N 58°09' E 010°46'0 1.1
2017-Apr-22 02:28N 58°09' E 010°47'1 2.3
2017-Apr-22 02:00N 58°09' E 010°49'2 3.9
2017-Apr-22 01:30N 58°08' E 010°52'2 3.9
2017-Apr-22 01:00N 58°08' E 010°56'2 3.6
2017-Apr-22 00:29N 58°08' E 010°60'2 3.2
2017-Apr-22 00:00N 58°08' E 011°02'2 2.9
2017-Apr-21 23:28N 58°07' E 010°60'2 4.3
2017-Apr-21 22:56N 58°06' E 010°56'2 4.5
2017-Apr-21 22:30N 58°04' E 010°54'0 0.9
2017-Apr-21 22:00N 58°04' E 010°53'2 3.5
2017-Apr-21 21:30N 58°06' E 010°55'2 3.3
2017-Apr-21 21:00N 58°07' E 010°57'2 3.8
2017-Apr-21 20:30N 58°08' E 010°60'2 3.6
2017-Apr-21 20:00N 58°10' E 011°02'1 2.5
2017-Apr-21 19:30N 58°11' E 011°03'1 2.3
2017-Apr-21 19:00N 58°11' E 011°05'6 4.4
2017-Apr-21 17:37N 58°08' E 010°55'1 3.0
2017-Apr-21 17:26N 58°08' E 010°55'1 2.9
2017-Apr-21 17:00N 58°09' E 010°56'1 2.7
2017-Apr-21 16:30N 58°10' E 010°58'1 2.2
2017-Apr-21 16:00N 58°11' E 010°60'1 1.9
2017-Apr-21 15:30N 58°12' E 011°01'1 1.9
2017-Apr-21 15:00N 58°12' E 011°02'1 1.7
2017-Apr-21 14:30N 58°13' E 011°03'3 3.0
2017-Apr-21 13:26N 58°10' E 010°60'4 6.4
2017-Apr-21 12:49N 58°08' E 010°54'2 6.1
2017-Apr-21 12:30N 58°07' E 010°50'1 2.8
2017-Apr-21 11:59N 58°09' E 010°52'2 3.1
2017-Apr-21 11:30N 58°10' E 010°54'2 3.1
2017-Apr-21 10:59N 58°11' E 010°56'2 3.1
2017-Apr-21 10:29N 58°11' E 010°58'1 2.8
2017-Apr-21 10:00N 58°12' E 011°00'1 2.3
2017-Apr-21 09:30N 58°13' E 011°02'1 1.0
2017-Apr-21 08:49N 58°13' E 011°01'7 5.4
2017-Apr-21 07:35N 58°08' E 010°52'0 5.5
2017-Apr-21 07:30N 58°08' E 010°51'0 0.8
2017-Apr-21 07:00N 58°08' E 010°50'1 2.8
2017-Apr-21 06:30N 58°09' E 010°52'1 2.6
2017-Apr-21 06:00N 58°10' E 010°54'2 3.1
2017-Apr-21 05:30N 58°11' E 010°57'1 1.8
2017-Apr-21 05:00N 58°11' E 010°58'1 2.7
2017-Apr-21 04:30N 58°12' E 010°60'1 2.1
2017-Apr-21 03:59N 58°13' E 011°02'1 2.5
2017-Apr-21 03:29N 58°14' E 011°03'1 2.2
2017-Apr-21 02:57N 58°13' E 011°02'2 4.9
2017-Apr-21 02:29N 58°11' E 010°59'2 4.9
2017-Apr-21 02:00N 58°10' E 010°56'3 5.2
2017-Apr-21 01:30N 58°08' E 010°51'0 0.4
2017-Apr-21 01:00N 58°08' E 010°52'2 3.6
2017-Apr-21 00:23N 58°10' E 010°54'1 3.0
2017-Apr-21 00:00N 58°11' E 010°56'2 3.3
2017-Apr-20 23:29N 58°12' E 010°58'1 3.0
2017-Apr-20 23:00N 58°13' E 011°00'1 2.2
2017-Apr-20 22:30N 58°14' E 011°02'1 1.0
2017-Apr-20 22:00N 58°13' E 011°03'6 5.3
2017-Apr-20 20:47N 58°09' E 010°54'1 5.1
2017-Apr-20 20:30N 58°08' E 010°51'1 1.0
2017-Apr-20 20:00N 58°09' E 010°51'1 2.1
2017-Apr-20 19:30N 58°09' E 010°53'1 2.0
2017-Apr-20 19:00N 58°10' E 010°54'1 1.4
2017-Apr-20 18:30N 58°10' E 010°55'1 1.5
2017-Apr-20 18:00N 58°11' E 010°57'1 1.7
2017-Apr-20 17:29N 58°11' E 010°58'1 2.0
2017-Apr-20 17:00N 58°12' E 010°60'1 2.2
2017-Apr-20 16:30N 58°12' E 011°02'1 2.1
2017-Apr-20 15:58N 58°12' E 011°04'1 2.5
2017-Apr-20 15:27N 58°13' E 011°06'12 5.4
2017-Apr-20 13:19N 58°05' E 010°49'1 2.9
2017-Apr-20 13:00N 58°05' E 010°51'2 3.2
2017-Apr-20 12:30N 58°06' E 010°53'2 3.3
2017-Apr-20 12:00N 58°07' E 010°55'2 3.0
2017-Apr-20 11:27N 58°08' E 010°58'1 2.4
2017-Apr-20 11:00N 58°09' E 010°59'3 4.5
2017-Apr-20 10:25N 58°09' E 011°04'1 2.7
2017-Apr-20 10:00N 58°09' E 011°06'2 2.9
2017-Apr-20 09:28N 58°10' E 011°09'2 3.5
2017-Apr-20 09:00N 58°11' E 011°11'0 0.2
2017-Apr-20 08:14N 58°11' E 011°11'0 0.0
2017-Apr-20 06:02N 58°11' E 011°11'0 0.0
2017-Apr-20 05:32N 58°11' E 011°11'0 0.1
2017-Apr-20 05:29N 58°11' E 011°11'0 0.0
2017-Apr-20 04:44N 58°11' E 011°10'0 0.0
2017-Apr-20 04:14N 58°11' E 011°10'0 0.0
2017-Apr-20 03:47N 58°11' E 011°10'0 0.0
2017-Apr-20 03:17N 58°11' E 011°10'0 0.0
2017-Apr-19 20:47N 58°11' E 011°10'0 0.1
2017-Apr-19 20:23N 58°11' E 011°10'0 0.1
2017-Apr-19 19:59N 58°11' E 011°10'0 0.1
2017-Apr-19 19:29N 58°11' E 011°10'0 0.0
2017-Apr-19 18:41N 58°11' E 011°10'0 0.1
2017-Apr-19 18:29N 58°11' E 011°10'0 0.0
2017-Apr-19 17:59N 58°11' E 011°10'0 0.0
2017-Apr-19 17:26N 58°11' E 011°10'0 0.0
2017-Apr-19 14:08N 58°11' E 011°10'0 0.0
2017-Apr-19 13:08N 58°11' E 011°10'0 0.0
2017-Apr-19 09:56N 58°11' E 011°10'0 0.0
2017-Apr-19 07:53N 58°11' E 011°10'0 0.0
2017-Apr-19 03:26N 58°11' E 011°10'0 0.0
2017-Apr-19 02:56N 58°11' E 011°10'  
Track history (hours):
 
Tides and Currents Weather Stations Pressure Air Temp Water Temp Dewpoint Dewpoint Depression Visibility Wind Speed Wind Dir Waves Ship Positions

Elisalex Schulte

Last reported at 2017-Apr-29 01:52 UTC. Time now 2017-Apr-30 01:17 UTC.
Position N 56°01' W 003°30'.

Length 144 m; draft 5.9 m.

Type: Tanker. MMSI: 563052000.

Date/timePositionNaut miles runAvg speedWind from/ knotsBaromVisibWave heightAir tempDewpointWater temp
2017-Apr-29 01:52N 56°01' W 003°30'3 6.8
2017-Apr-29 01:29N 56°00' W 003°26'4 6.9
2017-Apr-29 00:59N 56°01' W 003°20'510.5
2017-Apr-29 00:30N 56°03' W 003°11'4 7.7
2017-Apr-29 00:01N 56°04' W 003°05'3 5.7
2017-Apr-28 23:31N 56°05' W 002°60'3 5.7
2017-Apr-28 23:01N 56°05' W 002°55'3 5.4
2017-Apr-28 22:30N 56°06' W 002°51'3 5.4
2017-Apr-28 22:00N 56°07' W 002°46'3 5.4
2017-Apr-28 21:30N 56°07' W 002°41'2 5.0
2017-Apr-28 21:01N 56°07' W 002°37'3 5.4
2017-Apr-28 20:30N 56°07' W 002°32'3 6.3
2017-Apr-28 20:00N 56°06' W 002°27'713.5
2017-Apr-28 19:30N 56°02' W 002°16'713.5
2017-Apr-28 19:00N 55°59' W 002°06'713.1
2017-Apr-28 18:31N 55°56' W 001°56'713.0
2017-Apr-28 18:00N 55°53' W 001°46'612.7
2017-Apr-28 17:30N 55°49' W 001°36'812.3
2017-Apr-28 16:49N 55°45' W 001°23'412.2
2017-Apr-28 16:30N 55°43' W 001°17'1112.3
2017-Apr-28 15:36N 55°35' W 001°03'26711.0
2017-Apr-27 15:23N 52°04' E 003°35'411.5
2017-Apr-27 15:00N 52°04' E 003°42'9 9.4
2017-Apr-27 14:01N 52°03' E 003°57'4 7.1
2017-Apr-27 13:30N 52°00' E 004°01'4 8.0
2017-Apr-27 13:00N 51°59' E 004°07'5 9.8
2017-Apr-27 12:30N 51°56' E 004°13'4 7.7
2017-Apr-27 12:00N 51°53' E 004°18'1 0.9
2017-Apr-27 11:24N 51°53' E 004°17'0 0.0
2017-Apr-27 10:57N 51°53' E 004°17'0 0.0
2017-Apr-27 10:27N 51°53' E 004°17'0 0.0
2017-Apr-27 09:57N 51°53' E 004°17'0 0.0
2017-Apr-27 09:30N 51°53' E 004°17'0 0.0
2017-Apr-27 08:54N 51°53' E 004°17'0 0.0
2017-Apr-27 08:30N 51°53' E 004°17'0 0.0
2017-Apr-27 08:00N 51°53' E 004°17'0 0.0
2017-Apr-27 07:30N 51°53' E 004°17'0 0.0
2017-Apr-27 07:00N 51°53' E 004°17'0 0.0
2017-Apr-27 06:30N 51°53' E 004°17'0 0.0
2017-Apr-27 06:00N 51°53' E 004°17'0 0.0
2017-Apr-27 05:18N 51°53' E 004°17'0 0.0
2017-Apr-27 05:00N 51°53' E 004°17'0 0.0
2017-Apr-27 04:30N 51°53' E 004°17'0 0.0
2017-Apr-27 03:57N 51°53' E 004°17'0 0.0
2017-Apr-27 03:30N 51°53' E 004°17'0 0.0
2017-Apr-27 02:57N 51°53' E 004°17'0 0.0
2017-Apr-27 02:30N 51°53' E 004°17'0 0.0
2017-Apr-27 01:54N 51°53' E 004°17'0 0.0
2017-Apr-27 01:27N 51°53' E 004°17'0 0.0
2017-Apr-27 01:00N 51°53' E 004°17'0 0.0
2017-Apr-27 00:27N 51°53' E 004°17'0 0.0
2017-Apr-27 00:00N 51°53' E 004°17'0 0.0
2017-Apr-26 23:30N 51°53' E 004°17'0 0.0
2017-Apr-26 22:57N 51°53' E 004°17'0 0.0
2017-Apr-26 22:30N 51°53' E 004°17'0 0.0
2017-Apr-26 22:00N 51°53' E 004°17'0 0.0
2017-Apr-26 21:30N 51°53' E 004°17'0 0.0
2017-Apr-26 21:00N 51°53' E 004°17'0 0.0
2017-Apr-26 20:24N 51°53' E 004°17'0 0.0
2017-Apr-26 20:00N 51°53' E 004°17'0 0.0
2017-Apr-26 19:30N 51°53' E 004°17'0 0.0
2017-Apr-26 19:00N 51°53' E 004°17'0 0.0
2017-Apr-26 18:30N 51°53' E 004°17'0 0.0
2017-Apr-26 18:00N 51°53' E 004°17'0 0.0
2017-Apr-26 17:30N 51°53' E 004°17'0 0.0
2017-Apr-26 17:00N 51°53' E 004°17'0 0.0
2017-Apr-26 16:21N 51°53' E 004°17'0 0.0
2017-Apr-26 16:00N 51°53' E 004°17'0 0.0
2017-Apr-26 15:27N 51°53' E 004°17'0 0.0
2017-Apr-26 15:00N 51°53' E 004°17'0 0.0
2017-Apr-26 14:24N 51°53' E 004°17'0 0.0
2017-Apr-26 13:27N 51°53' E 004°17'0 0.0
2017-Apr-26 12:57N 51°53' E 004°17'0 0.0
2017-Apr-26 12:22N 51°53' E 004°17'0 0.4
2017-Apr-26 12:00N 51°53' E 004°17'1 1.5
2017-Apr-26 11:30N 51°54' E 004°17'4 7.7
2017-Apr-26 11:00N 51°56' E 004°12'4 7.5
2017-Apr-26 10:30N 51°58' E 004°07'4 7.6
2017-Apr-26 10:00N 51°60' E 004°01'4 8.0
2017-Apr-26 09:30N 52°01' E 003°55'4 7.8
2017-Apr-26 09:00N 52°02' E 003°49'4 8.6
2017-Apr-26 08:30N 52°03' E 003°42'426 9.9
2017-Apr-24 13:22N 58°00' E 010°27'410.2
2017-Apr-24 13:00N 58°02' E 010°34'510.7
2017-Apr-24 12:30N 58°05' E 010°42'610.6
2017-Apr-24 11:58N 58°08' E 010°51'510.2
2017-Apr-24 11:30N 58°11' E 010°58'5 9.6
2017-Apr-24 10:59N 58°14' E 011°06'4 7.5
2017-Apr-24 10:31N 58°16' E 011°12'3 5.5
2017-Apr-24 10:00N 58°17' E 011°17'3 6.8
2017-Apr-24 09:30N 58°19' E 011°22'3 6.5
2017-Apr-24 09:00N 58°22' E 011°26'0 0.0
2017-Apr-23 11:49N 58°21' E 011°26'0 0.0
2017-Apr-23 11:23N 58°21' E 011°26'1 2.4
2017-Apr-23 11:01N 58°21' E 011°25'4 8.9
2017-Apr-23 10:31N 58°18' E 011°19'510.4
2017-Apr-23 10:00N 58°14' E 011°12'3 5.9
2017-Apr-23 09:26N 58°11' E 011°10'0 0.0
2017-Apr-23 06:32N 58°11' E 011°10'0 0.2
2017-Apr-23 06:29N 58°11' E 011°10'0 0.0
2017-Apr-23 05:56N 58°11' E 011°10'0 0.0
2017-Apr-23 05:23N 58°11' E 011°10'0 0.0
2017-Apr-23 04:50N 58°11' E 011°10'0 0.0
2017-Apr-23 04:20N 58°11' E 011°10'0 0.1
2017-Apr-23 03:20N 58°11' E 011°10'0 0.1
2017-Apr-23 02:14N 58°11' E 011°10'0 0.0
2017-Apr-23 01:56N 58°11' E 011°10'0 0.0
2017-Apr-22 20:59N 58°11' E 011°10'0 0.0
2017-Apr-22 19:26N 58°11' E 011°10'0 0.0
2017-Apr-22 17:47N 58°11' E 011°10'0 0.0
2017-Apr-22 16:38N 58°11' E 011°10'0 0.0
2017-Apr-22 16:23N 58°11' E 011°10'0 0.0
2017-Apr-22 14:29N 58°11' E 011°10'0 0.1
2017-Apr-22 12:38N 58°11' E 011°10'0 0.1
2017-Apr-22 11:40N 58°11' E 011°10'0 1.5
2017-Apr-22 11:30N 58°11' E 011°10'3 6.2
2017-Apr-22 11:00N 58°11' E 011°04'4 7.9
2017-Apr-22 10:30N 58°11' E 010°57'2 3.0
2017-Apr-22 09:58N 58°11' E 010°54'2 3.7
2017-Apr-22 09:30N 58°11' E 010°50'1 2.6
2017-Apr-22 09:00N 58°10' E 010°48'2 3.2
2017-Apr-22 08:29N 58°11' E 010°51'2 3.1
2017-Apr-22 08:00N 58°11' E 010°54'1 2.8
2017-Apr-22 07:29N 58°12' E 010°56'2 3.1
2017-Apr-22 07:00N 58°12' E 010°59'1 2.9
2017-Apr-22 06:30N 58°12' E 011°02'1 2.7
2017-Apr-22 05:59N 58°12' E 011°04'1 2.4
2017-Apr-22 05:26N 58°12' E 011°07'2 3.5
2017-Apr-22 04:59N 58°11' E 011°04'2 4.6
2017-Apr-22 04:29N 58°11' E 010°60'2 5.1
2017-Apr-22 04:00N 58°10' E 010°55'3 6.2
2017-Apr-22 03:30N 58°09' E 010°50'2 3.2
2017-Apr-22 02:53N 58°09' E 010°46'0 1.1
2017-Apr-22 02:28N 58°09' E 010°47'1 2.3
2017-Apr-22 02:00N 58°09' E 010°49'2 3.9
2017-Apr-22 01:30N 58°08' E 010°52'2 3.9
2017-Apr-22 01:00N 58°08' E 010°56'2 3.6
2017-Apr-22 00:29N 58°08' E 010°60'2 3.2
2017-Apr-22 00:00N 58°08' E 011°02'2 2.9
2017-Apr-21 23:28N 58°07' E 010°60'2 4.3
2017-Apr-21 22:56N 58°06' E 010°56'2 4.5
2017-Apr-21 22:30N 58°04' E 010°54'0 0.9
2017-Apr-21 22:00N 58°04' E 010°53'2 3.5
2017-Apr-21 21:30N 58°06' E 010°55'2 3.3
2017-Apr-21 21:00N 58°07' E 010°57'2 3.8
2017-Apr-21 20:30N 58°08' E 010°60'2 3.6
2017-Apr-21 20:00N 58°10' E 011°02'1 2.5
2017-Apr-21 19:30N 58°11' E 011°03'1 2.3
2017-Apr-21 19:00N 58°11' E 011°05'6 4.4
2017-Apr-21 17:37N 58°08' E 010°55'1 3.0
2017-Apr-21 17:26N 58°08' E 010°55'1 2.9
2017-Apr-21 17:00N 58°09' E 010°56'1 2.7
2017-Apr-21 16:30N 58°10' E 010°58'1 2.2
2017-Apr-21 16:00N 58°11' E 010°60'1 1.9
2017-Apr-21 15:30N 58°12' E 011°01'1 1.9
2017-Apr-21 15:00N 58°12' E 011°02'1 1.7
2017-Apr-21 14:30N 58°13' E 011°03'3 3.0
2017-Apr-21 13:26N 58°10' E 010°60'4 6.4
2017-Apr-21 12:49N 58°08' E 010°54'2 6.1
2017-Apr-21 12:30N 58°07' E 010°50'1 2.8
2017-Apr-21 11:59N 58°09' E 010°52'2 3.1
2017-Apr-21 11:30N 58°10' E 010°54'2 3.1
2017-Apr-21 10:59N 58°11' E 010°56'2 3.1
2017-Apr-21 10:29N 58°11' E 010°58'1 2.8
2017-Apr-21 10:00N 58°12' E 011°00'1 2.3
2017-Apr-21 09:30N 58°13' E 011°02'1 1.0
2017-Apr-21 08:49N 58°13' E 011°01'7 5.4
2017-Apr-21 07:35N 58°08' E 010°52'0 5.5
2017-Apr-21 07:30N 58°08' E 010°51'0 0.8
2017-Apr-21 07:00N 58°08' E 010°50'1 2.8
2017-Apr-21 06:30N 58°09' E 010°52'1 2.6
2017-Apr-21 06:00N 58°10' E 010°54'2 3.1
2017-Apr-21 05:30N 58°11' E 010°57'1 1.8
2017-Apr-21 05:00N 58°11' E 010°58'1 2.7
2017-Apr-21 04:30N 58°12' E 010°60'1 2.1
2017-Apr-21 03:59N 58°13' E 011°02'1 2.5
2017-Apr-21 03:29N 58°14' E 011°03'1 2.2
2017-Apr-21 02:57N 58°13' E 011°02'2 4.9
2017-Apr-21 02:29N 58°11' E 010°59'2 4.9
2017-Apr-21 02:00N 58°10' E 010°56'3 5.2
2017-Apr-21 01:30N 58°08' E 010°51'0 0.4
2017-Apr-21 01:00N 58°08' E 010°52'2 3.6
2017-Apr-21 00:23N 58°10' E 010°54'1 3.0
2017-Apr-21 00:00N 58°11' E 010°56'2 3.3
2017-Apr-20 23:29N 58°12' E 010°58'1 3.0
2017-Apr-20 23:00N 58°13' E 011°00'1 2.2
2017-Apr-20 22:30N 58°14' E 011°02'1 1.0
2017-Apr-20 22:00N 58°13' E 011°03'6 5.3
2017-Apr-20 20:47N 58°09' E 010°54'1 5.1
2017-Apr-20 20:30N 58°08' E 010°51'1 1.0
2017-Apr-20 20:00N 58°09' E 010°51'1 2.1
2017-Apr-20 19:30N 58°09' E 010°53'1 2.0
2017-Apr-20 19:00N 58°10' E 010°54'1 1.4
2017-Apr-20 18:30N 58°10' E 010°55'1 1.5
2017-Apr-20 18:00N 58°11' E 010°57'1 1.7
2017-Apr-20 17:29N 58°11' E 010°58'1 2.0
2017-Apr-20 17:00N 58°12' E 010°60'1 2.2
2017-Apr-20 16:30N 58°12' E 011°02'1 2.1
2017-Apr-20 15:58N 58°12' E 011°04'1 2.5
2017-Apr-20 15:27N 58°13' E 011°06'12 5.4
2017-Apr-20 13:19N 58°05' E 010°49'1 2.9
2017-Apr-20 13:00N 58°05' E 010°51'2 3.2
2017-Apr-20 12:30N 58°06' E 010°53'2 3.3
2017-Apr-20 12:00N 58°07' E 010°55'2 3.0
2017-Apr-20 11:27N 58°08' E 010°58'1 2.4
2017-Apr-20 11:00N 58°09' E 010°59'3 4.5
2017-Apr-20 10:25N 58°09' E 011°04'1 2.7
2017-Apr-20 10:00N 58°09' E 011°06'2 2.9
2017-Apr-20 09:28N 58°10' E 011°09'2 3.5
2017-Apr-20 09:00N 58°11' E 011°11'0 0.2
2017-Apr-20 08:14N 58°11' E 011°11'0 0.0
2017-Apr-20 06:02N 58°11' E 011°11'0 0.0
2017-Apr-20 05:32N 58°11' E 011°11'0 0.1
2017-Apr-20 05:29N 58°11' E 011°11'0 0.0
2017-Apr-20 04:44N 58°11' E 011°10'0 0.0
2017-Apr-20 04:14N 58°11' E 011°10'0 0.0
2017-Apr-20 03:47N 58°11' E 011°10'0 0.0
2017-Apr-20 03:17N 58°11' E 011°10'0 0.0
2017-Apr-19 20:47N 58°11' E 011°10'0 0.1
2017-Apr-19 20:23N 58°11' E 011°10'0 0.1
2017-Apr-19 19:59N 58°11' E 011°10'0 0.1
2017-Apr-19 19:29N 58°11' E 011°10'0 0.0
2017-Apr-19 18:41N 58°11' E 011°10'0 0.1
2017-Apr-19 18:29N 58°11' E 011°10'0 0.0
2017-Apr-19 17:59N 58°11' E 011°10'0 0.0
2017-Apr-19 17:26N 58°11' E 011°10'0 0.0
2017-Apr-19 14:08N 58°11' E 011°10'0 0.0
2017-Apr-19 13:08N 58°11' E 011°10'0 0.0
2017-Apr-19 09:56N 58°11' E 011°10'0 0.0
2017-Apr-19 07:53N 58°11' E 011°10'0 0.0
2017-Apr-19 03:26N 58°11' E 011°10'0 0.0
2017-Apr-19 02:56N 58°11' E 011°10'  

Dump ship's entire track history